sensor_id;sensor_type;location;lat;lon;timestamp;P1;durP1;ratioP1;P2;durP2;ratioP2
64894;SDS011;51588;53.702;10.208;2024-03-02T00:01:22;8.20;;;6.63;;
64894;SDS011;51588;53.702;10.208;2024-03-02T00:03:49;7.73;;;6.60;;
64894;SDS011;51588;53.702;10.208;2024-03-02T00:06:18;8.40;;;6.57;;
64894;SDS011;51588;53.702;10.208;2024-03-02T00:08:46;9.40;;;7.40;;
64894;SDS011;51588;53.702;10.208;2024-03-02T00:11:14;8.50;;;6.67;;
64894;SDS011;51588;53.702;10.208;2024-03-02T00:13:41;8.33;;;6.60;;
64894;SDS011;51588;53.702;10.208;2024-03-02T00:16:08;9.00;;;6.97;;
64894;SDS011;51588;53.702;10.208;2024-03-02T00:18:35;9.03;;;6.80;;
64894;SDS011;51588;53.702;10.208;2024-03-02T00:21:02;8.77;;;6.97;;
64894;SDS011;51588;53.702;10.208;2024-03-02T00:23:34;9.40;;;7.17;;
64894;SDS011;51588;53.702;10.208;2024-03-02T00:26:01;10.10;;;7.40;;
64894;SDS011;51588;53.702;10.208;2024-03-02T00:28:30;9.10;;;7.40;;
64894;SDS011;51588;53.702;10.208;2024-03-02T00:30:59;9.80;;;7.63;;
64894;SDS011;51588;53.702;10.208;2024-03-02T00:33:30;8.80;;;7.40;;
64894;SDS011;51588;53.702;10.208;2024-03-02T00:35:58;8.83;;;7.27;;
64894;SDS011;51588;53.702;10.208;2024-03-02T00:38:25;9.00;;;7.20;;
64894;SDS011;51588;53.702;10.208;2024-03-02T00:40:58;9.40;;;7.23;;
64894;SDS011;51588;53.702;10.208;2024-03-02T00:43:45;12.03;;;6.63;;
64894;SDS011;51588;53.702;10.208;2024-03-02T00:46:15;10.43;;;7.27;;
64894;SDS011;51588;53.702;10.208;2024-03-02T00:48:45;9.10;;;7.70;;
64894;SDS011;51588;53.702;10.208;2024-03-02T00:51:14;9.53;;;7.30;;
64894;SDS011;51588;53.702;10.208;2024-03-02T00:53:41;10.07;;;7.70;;
64894;SDS011;51588;53.702;10.208;2024-03-02T00:56:09;11.23;;;8.57;;
64894;SDS011;51588;53.702;10.208;2024-03-02T00:58:36;8.87;;;7.10;;
64894;SDS011;51588;53.702;10.208;2024-03-02T01:01:08;8.87;;;7.17;;
64894;SDS011;51588;53.702;10.208;2024-03-02T01:03:34;9.63;;;7.50;;
64894;SDS011;51588;53.702;10.208;2024-03-02T01:06:02;9.33;;;7.27;;
64894;SDS011;51588;53.702;10.208;2024-03-02T01:08:29;9.27;;;7.40;;
64894;SDS011;51588;53.702;10.208;2024-03-02T01:10:58;9.70;;;7.33;;
64894;SDS011;51588;53.702;10.208;2024-03-02T01:13:31;9.73;;;8.00;;
64894;SDS011;51588;53.702;10.208;2024-03-02T01:16:01;9.50;;;7.67;;
64894;SDS011;51588;53.702;10.208;2024-03-02T01:18:30;11.47;;;8.00;;
64894;SDS011;51588;53.702;10.208;2024-03-02T01:20:57;9.50;;;7.50;;
64894;SDS011;51588;53.702;10.208;2024-03-02T01:23:23;11.73;;;8.00;;
64894;SDS011;51588;53.702;10.208;2024-03-02T01:25:50;10.70;;;7.80;;
64894;SDS011;51588;53.702;10.208;2024-03-02T01:28:18;8.90;;;7.13;;
64894;SDS011;51588;53.702;10.208;2024-03-02T01:30:45;10.97;;;7.73;;
64894;SDS011;51588;53.702;10.208;2024-03-02T01:33:12;10.60;;;7.70;;
64894;SDS011;51588;53.702;10.208;2024-03-02T01:35:40;9.37;;;7.70;;
64894;SDS011;51588;53.702;10.208;2024-03-02T01:38:07;10.70;;;7.90;;
64894;SDS011;51588;53.702;10.208;2024-03-02T01:40:34;10.33;;;7.80;;
64894;SDS011;51588;53.702;10.208;2024-03-02T01:43:01;9.30;;;7.20;;
64894;SDS011;51588;53.702;10.208;2024-03-02T01:45:27;9.20;;;7.50;;
64894;SDS011;51588;53.702;10.208;2024-03-02T01:47:54;9.27;;;7.37;;
64894;SDS011;51588;53.702;10.208;2024-03-02T01:50:24;8.73;;;6.87;;
64894;SDS011;51588;53.702;10.208;2024-03-02T01:52:53;9.20;;;7.53;;
64894;SDS011;51588;53.702;10.208;2024-03-02T01:55:20;11.17;;;8.30;;
64894;SDS011;51588;53.702;10.208;2024-03-02T01:57:47;9.90;;;7.87;;
64894;SDS011;51588;53.702;10.208;2024-03-02T02:00:18;9.50;;;7.50;;
64894;SDS011;51588;53.702;10.208;2024-03-02T02:02:46;10.40;;;8.10;;
64894;SDS011;51588;53.702;10.208;2024-03-02T02:05:13;9.03;;;7.40;;
64894;SDS011;51588;53.702;10.208;2024-03-02T02:07:40;10.33;;;8.00;;
64894;SDS011;51588;53.702;10.208;2024-03-02T02:10:09;10.17;;;7.90;;
64894;SDS011;51588;53.702;10.208;2024-03-02T02:12:36;11.50;;;7.90;;
64894;SDS011;51588;53.702;10.208;2024-03-02T02:15:03;11.43;;;8.07;;
64894;SDS011;51588;53.702;10.208;2024-03-02T02:17:30;11.57;;;8.80;;
64894;SDS011;51588;53.702;10.208;2024-03-02T02:19:57;11.37;;;8.00;;
64894;SDS011;51588;53.702;10.208;2024-03-02T02:22:25;9.73;;;8.10;;
64894;SDS011;51588;53.702;10.208;2024-03-02T02:24:51;9.80;;;7.97;;
64894;SDS011;51588;53.702;10.208;2024-03-02T02:27:18;11.13;;;8.13;;
64894;SDS011;51588;53.702;10.208;2024-03-02T02:29:45;10.13;;;7.80;;
64894;SDS011;51588;53.702;10.208;2024-03-02T02:32:11;10.43;;;8.07;;
64894;SDS011;51588;53.702;10.208;2024-03-02T02:34:41;10.10;;;7.73;;
64894;SDS011;51588;53.702;10.208;2024-03-02T02:37:07;11.07;;;7.67;;
64894;SDS011;51588;53.702;10.208;2024-03-02T02:39:35;10.20;;;8.07;;
64894;SDS011;51588;53.702;10.208;2024-03-02T02:42:02;8.87;;;7.53;;
64894;SDS011;51588;53.702;10.208;2024-03-02T02:44:29;10.57;;;8.10;;
64894;SDS011;51588;53.702;10.208;2024-03-02T02:46:59;9.17;;;7.30;;
64894;SDS011;51588;53.702;10.208;2024-03-02T02:49:25;9.50;;;7.57;;
64894;SDS011;51588;53.702;10.208;2024-03-02T02:51:52;10.03;;;8.03;;
64894;SDS011;51588;53.702;10.208;2024-03-02T02:54:19;10.17;;;7.90;;
64894;SDS011;51588;53.702;10.208;2024-03-02T02:56:46;10.70;;;8.13;;
64894;SDS011;51588;53.702;10.208;2024-03-02T02:59:13;8.73;;;6.93;;
64894;SDS011;51588;53.702;10.208;2024-03-02T03:01:40;10.80;;;8.20;;
64894;SDS011;51588;53.702;10.208;2024-03-02T03:04:06;9.93;;;7.90;;
64894;SDS011;51588;53.702;10.208;2024-03-02T03:06:33;10.43;;;8.13;;
64894;SDS011;51588;53.702;10.208;2024-03-02T03:08:59;10.20;;;7.77;;
64894;SDS011;51588;53.702;10.208;2024-03-02T03:11:26;10.73;;;8.00;;
64894;SDS011;51588;53.702;10.208;2024-03-02T03:13:54;9.37;;;7.40;;
64894;SDS011;51588;53.702;10.208;2024-03-02T03:16:21;10.87;;;7.73;;
64894;SDS011;51588;53.702;10.208;2024-03-02T03:18:48;9.07;;;7.20;;
64894;SDS011;51588;53.702;10.208;2024-03-02T03:21:16;11.60;;;8.00;;
64894;SDS011;51588;53.702;10.208;2024-03-02T03:23:43;9.80;;;8.23;;
64894;SDS011;51588;53.702;10.208;2024-03-02T03:26:10;9.47;;;7.10;;
64894;SDS011;51588;53.702;10.208;2024-03-02T03:28:36;10.43;;;7.77;;
64894;SDS011;51588;53.702;10.208;2024-03-02T03:31:04;10.00;;;8.00;;
64894;SDS011;51588;53.702;10.208;2024-03-02T03:33:31;10.40;;;8.00;;
64894;SDS011;51588;53.702;10.208;2024-03-02T03:35:58;9.87;;;7.80;;
64894;SDS011;51588;53.702;10.208;2024-03-02T03:38:24;10.70;;;8.20;;
64894;SDS011;51588;53.702;10.208;2024-03-02T03:40:51;9.13;;;8.07;;
64894;SDS011;51588;53.702;10.208;2024-03-02T03:43:17;13.07;;;8.30;;
64894;SDS011;51588;53.702;10.208;2024-03-02T03:45:44;10.07;;;7.70;;
64894;SDS011;51588;53.702;10.208;2024-03-02T03:48:12;9.47;;;7.33;;
64894;SDS011;51588;53.702;10.208;2024-03-02T03:50:39;9.60;;;7.40;;
64894;SDS011;51588;53.702;10.208;2024-03-02T03:53:05;10.00;;;7.77;;
64894;SDS011;51588;53.702;10.208;2024-03-02T03:55:32;11.03;;;8.30;;
64894;SDS011;51588;53.702;10.208;2024-03-02T03:57:58;9.27;;;7.40;;
64894;SDS011;51588;53.702;10.208;2024-03-02T04:00:25;8.97;;;7.77;;
64894;SDS011;51588;53.702;10.208;2024-03-02T04:02:52;9.00;;;7.03;;
64894;SDS011;51588;53.702;10.208;2024-03-02T04:05:23;10.47;;;7.63;;
64894;SDS011;51588;53.702;10.208;2024-03-02T04:07:49;9.30;;;7.47;;
64894;SDS011;51588;53.702;10.208;2024-03-02T04:10:18;8.67;;;7.43;;
64894;SDS011;51588;53.702;10.208;2024-03-02T04:12:51;10.17;;;8.20;;
64894;SDS011;51588;53.702;10.208;2024-03-02T04:15:23;9.00;;;7.03;;
64894;SDS011;51588;53.702;10.208;2024-03-02T04:17:50;9.87;;;7.77;;
64894;SDS011;51588;53.702;10.208;2024-03-02T04:20:18;8.97;;;7.40;;
64894;SDS011;51588;53.702;10.208;2024-03-02T04:22:46;9.60;;;7.57;;
64894;SDS011;51588;53.702;10.208;2024-03-02T04:25:13;9.90;;;6.90;;
64894;SDS011;51588;53.702;10.208;2024-03-02T04:27:43;10.80;;;8.17;;
64894;SDS011;51588;53.702;10.208;2024-03-02T04:30:10;8.43;;;7.03;;
64894;SDS011;51588;53.702;10.208;2024-03-02T04:32:37;8.27;;;7.37;;
64894;SDS011;51588;53.702;10.208;2024-03-02T04:35:04;8.70;;;6.70;;
64894;SDS011;51588;53.702;10.208;2024-03-02T04:37:34;9.20;;;7.47;;
64894;SDS011;51588;53.702;10.208;2024-03-02T04:40:02;9.43;;;7.67;;
64894;SDS011;51588;53.702;10.208;2024-03-02T04:42:32;8.73;;;7.23;;
64894;SDS011;51588;53.702;10.208;2024-03-02T04:45:02;9.37;;;7.53;;
64894;SDS011;51588;53.702;10.208;2024-03-02T04:47:29;7.83;;;6.67;;
64894;SDS011;51588;53.702;10.208;2024-03-02T04:50:01;9.80;;;7.57;;
64894;SDS011;51588;53.702;10.208;2024-03-02T04:52:27;9.13;;;7.60;;
64894;SDS011;51588;53.702;10.208;2024-03-02T04:54:54;8.83;;;7.30;;
64894;SDS011;51588;53.702;10.208;2024-03-02T04:57:53;9.13;;;7.20;;
64894;SDS011;51588;53.702;10.208;2024-03-02T05:00:21;10.10;;;7.70;;
64894;SDS011;51588;53.702;10.208;2024-03-02T05:02:47;9.20;;;6.97;;
64894;SDS011;51588;53.702;10.208;2024-03-02T05:05:14;9.63;;;7.60;;
64894;SDS011;51588;53.702;10.208;2024-03-02T05:07:41;8.47;;;6.80;;
64894;SDS011;51588;53.702;10.208;2024-03-02T05:10:09;9.87;;;7.57;;
64894;SDS011;51588;53.702;10.208;2024-03-02T05:12:37;8.67;;;7.23;;
64894;SDS011;51588;53.702;10.208;2024-03-02T05:15:23;8.80;;;7.57;;
64894;SDS011;51588;53.702;10.208;2024-03-02T05:17:49;9.77;;;7.27;;
64894;SDS011;51588;53.702;10.208;2024-03-02T05:20:16;9.80;;;8.00;;
64894;SDS011;51588;53.702;10.208;2024-03-02T05:22:42;9.97;;;7.50;;
64894;SDS011;51588;53.702;10.208;2024-03-02T05:25:09;10.13;;;7.63;;
64894;SDS011;51588;53.702;10.208;2024-03-02T05:27:36;7.83;;;6.87;;
64894;SDS011;51588;53.702;10.208;2024-03-02T05:30:03;9.07;;;7.60;;
64894;SDS011;51588;53.702;10.208;2024-03-02T05:32:33;9.17;;;6.60;;
64894;SDS011;51588;53.702;10.208;2024-03-02T05:35:00;8.57;;;7.00;;
64894;SDS011;51588;53.702;10.208;2024-03-02T05:37:28;9.50;;;7.87;;
64894;SDS011;51588;53.702;10.208;2024-03-02T05:39:54;10.23;;;7.40;;
64894;SDS011;51588;53.702;10.208;2024-03-02T05:42:21;8.43;;;7.37;;
64894;SDS011;51588;53.702;10.208;2024-03-02T05:44:48;9.70;;;7.30;;
64894;SDS011;51588;53.702;10.208;2024-03-02T05:47:21;8.80;;;6.77;;
64894;SDS011;51588;53.702;10.208;2024-03-02T05:49:49;11.30;;;7.80;;
64894;SDS011;51588;53.702;10.208;2024-03-02T05:52:15;11.17;;;7.70;;
64894;SDS011;51588;53.702;10.208;2024-03-02T05:54:42;9.60;;;7.00;;
64894;SDS011;51588;53.702;10.208;2024-03-02T05:57:11;10.10;;;7.63;;
64894;SDS011;51588;53.702;10.208;2024-03-02T06:00:00;12.00;;;6.77;;
64894;SDS011;51588;53.702;10.208;2024-03-02T06:02:27;9.07;;;7.13;;
64894;SDS011;51588;53.702;10.208;2024-03-02T06:04:58;10.20;;;7.50;;
64894;SDS011;51588;53.702;10.208;2024-03-02T06:07:24;9.93;;;8.10;;
64894;SDS011;51588;53.702;10.208;2024-03-02T06:09:51;8.60;;;7.40;;
64894;SDS011;51588;53.702;10.208;2024-03-02T06:12:20;8.90;;;6.97;;
64894;SDS011;51588;53.702;10.208;2024-03-02T06:14:47;9.10;;;7.30;;
64894;SDS011;51588;53.702;10.208;2024-03-02T06:17:13;8.13;;;6.87;;
64894;SDS011;51588;53.702;10.208;2024-03-02T06:19:40;9.97;;;7.10;;
64894;SDS011;51588;53.702;10.208;2024-03-02T06:22:11;8.90;;;7.43;;
64894;SDS011;51588;53.702;10.208;2024-03-02T06:24:40;8.70;;;7.23;;
64894;SDS011;51588;53.702;10.208;2024-03-02T06:27:07;8.73;;;6.73;;
64894;SDS011;51588;53.702;10.208;2024-03-02T06:29:34;10.37;;;7.97;;
64894;SDS011;51588;53.702;10.208;2024-03-02T06:32:00;10.07;;;7.63;;
64894;SDS011;51588;53.702;10.208;2024-03-02T06:34:29;10.07;;;7.83;;
64894;SDS011;51588;53.702;10.208;2024-03-02T06:36:59;8.90;;;6.90;;
64894;SDS011;51588;53.702;10.208;2024-03-02T06:39:27;9.40;;;7.33;;
64894;SDS011;51588;53.702;10.208;2024-03-02T06:41:53;9.77;;;7.73;;
64894;SDS011;51588;53.702;10.208;2024-03-02T06:44:20;9.30;;;7.70;;
64894;SDS011;51588;53.702;10.208;2024-03-02T06:46:47;8.83;;;7.57;;
64894;SDS011;51588;53.702;10.208;2024-03-02T06:49:15;8.43;;;7.20;;
64894;SDS011;51588;53.702;10.208;2024-03-02T06:51:43;9.53;;;7.47;;
64894;SDS011;51588;53.702;10.208;2024-03-02T06:54:09;10.47;;;7.80;;
64894;SDS011;51588;53.702;10.208;2024-03-02T06:56:37;9.00;;;7.10;;
64894;SDS011;51588;53.702;10.208;2024-03-02T06:59:05;9.77;;;7.60;;
64894;SDS011;51588;53.702;10.208;2024-03-02T07:01:34;11.90;;;7.20;;
64894;SDS011;51588;53.702;10.208;2024-03-02T07:04:07;10.00;;;6.93;;
64894;SDS011;51588;53.702;10.208;2024-03-02T07:06:34;9.03;;;7.07;;
64894;SDS011;51588;53.702;10.208;2024-03-02T07:09:00;8.53;;;6.77;;
64894;SDS011;51588;53.702;10.208;2024-03-02T07:11:27;9.40;;;6.83;;
64894;SDS011;51588;53.702;10.208;2024-03-02T07:13:58;8.47;;;6.70;;
64894;SDS011;51588;53.702;10.208;2024-03-02T07:16:25;9.90;;;7.10;;
64894;SDS011;51588;53.702;10.208;2024-03-02T07:18:56;8.57;;;6.73;;
64894;SDS011;51588;53.702;10.208;2024-03-02T07:21:24;11.53;;;6.80;;
64894;SDS011;51588;53.702;10.208;2024-03-02T07:23:51;7.97;;;6.10;;
64894;SDS011;51588;53.702;10.208;2024-03-02T07:26:17;8.63;;;6.80;;
64894;SDS011;51588;53.702;10.208;2024-03-02T07:28:45;8.13;;;6.93;;
64894;SDS011;51588;53.702;10.208;2024-03-02T07:31:14;8.47;;;6.50;;
64894;SDS011;51588;53.702;10.208;2024-03-02T07:33:40;8.60;;;6.83;;
64894;SDS011;51588;53.702;10.208;2024-03-02T07:36:07;10.10;;;6.03;;
64894;SDS011;51588;53.702;10.208;2024-03-02T07:38:34;7.60;;;6.20;;
64894;SDS011;51588;53.702;10.208;2024-03-02T07:41:06;15.17;;;6.80;;
64894;SDS011;51588;53.702;10.208;2024-03-02T07:43:33;8.73;;;6.43;;
64894;SDS011;51588;53.702;10.208;2024-03-02T07:46:06;8.33;;;6.50;;
64894;SDS011;51588;53.702;10.208;2024-03-02T07:48:34;11.13;;;7.10;;
64894;SDS011;51588;53.702;10.208;2024-03-02T07:51:04;9.67;;;6.87;;
64894;SDS011;51588;53.702;10.208;2024-03-02T07:53:30;8.40;;;6.80;;
64894;SDS011;51588;53.702;10.208;2024-03-02T07:55:57;8.03;;;6.43;;
64894;SDS011;51588;53.702;10.208;2024-03-02T07:58:27;9.13;;;6.27;;
64894;SDS011;51588;53.702;10.208;2024-03-02T08:00:54;11.70;;;6.27;;
64894;SDS011;51588;53.702;10.208;2024-03-02T08:03:21;10.13;;;6.30;;
64894;SDS011;51588;53.702;10.208;2024-03-02T08:05:50;8.67;;;5.63;;
64894;SDS011;51588;53.702;10.208;2024-03-02T08:08:16;8.77;;;6.47;;
64894;SDS011;51588;53.702;10.208;2024-03-02T08:10:43;7.63;;;6.30;;
64894;SDS011;51588;53.702;10.208;2024-03-02T08:13:13;9.17;;;6.40;;
64894;SDS011;51588;53.702;10.208;2024-03-02T08:15:40;8.50;;;6.50;;
64894;SDS011;51588;53.702;10.208;2024-03-02T08:18:06;9.10;;;6.50;;
64894;SDS011;51588;53.702;10.208;2024-03-02T08:20:33;9.20;;;6.10;;
64894;SDS011;51588;53.702;10.208;2024-03-02T08:23:02;9.03;;;6.17;;
64894;SDS011;51588;53.702;10.208;2024-03-02T08:25:28;11.50;;;6.00;;
64894;SDS011;51588;53.702;10.208;2024-03-02T08:27:58;7.83;;;5.97;;
64894;SDS011;51588;53.702;10.208;2024-03-02T08:30:27;10.30;;;5.97;;
64894;SDS011;51588;53.702;10.208;2024-03-02T08:32:54;7.13;;;5.80;;
64894;SDS011;51588;53.702;10.208;2024-03-02T08:35:21;9.43;;;6.37;;
64894;SDS011;51588;53.702;10.208;2024-03-02T08:37:48;13.27;;;7.43;;
64894;SDS011;51588;53.702;10.208;2024-03-02T08:40:22;32.00;;;8.50;;
64894;SDS011;51588;53.702;10.208;2024-03-02T08:42:49;25.57;;;7.90;;
64894;SDS011;51588;53.702;10.208;2024-03-02T08:45:19;24.53;;;8.13;;
64894;SDS011;51588;53.702;10.208;2024-03-02T08:47:46;25.30;;;8.00;;
64894;SDS011;51588;53.702;10.208;2024-03-02T08:50:13;25.60;;;8.47;;
64894;SDS011;51588;53.702;10.208;2024-03-02T08:52:40;32.07;;;8.90;;
64894;SDS011;51588;53.702;10.208;2024-03-02T08:55:07;30.40;;;9.93;;
64894;SDS011;51588;53.702;10.208;2024-03-02T08:57:37;23.50;;;8.90;;
64894;SDS011;51588;53.702;10.208;2024-03-02T09:00:05;17.63;;;7.90;;
64894;SDS011;51588;53.702;10.208;2024-03-02T09:02:33;20.17;;;8.27;;
64894;SDS011;51588;53.702;10.208;2024-03-02T09:05:00;45.07;;;10.33;;
64894;SDS011;51588;53.702;10.208;2024-03-02T09:07:27;22.57;;;8.97;;
64894;SDS011;51588;53.702;10.208;2024-03-02T09:09:56;25.60;;;9.60;;
64894;SDS011;51588;53.702;10.208;2024-03-02T09:12:22;25.30;;;9.17;;
64894;SDS011;51588;53.702;10.208;2024-03-02T09:14:50;24.70;;;8.90;;
64894;SDS011;51588;53.702;10.208;2024-03-02T09:17:17;20.90;;;8.27;;
64894;SDS011;51588;53.702;10.208;2024-03-02T09:19:43;20.07;;;8.30;;
64894;SDS011;51588;53.702;10.208;2024-03-02T09:22:10;19.50;;;8.20;;
64894;SDS011;51588;53.702;10.208;2024-03-02T09:24:37;23.27;;;8.43;;
64894;SDS011;51588;53.702;10.208;2024-03-02T09:27:11;17.47;;;8.17;;
64894;SDS011;51588;53.702;10.208;2024-03-02T09:29:43;23.73;;;8.40;;
64894;SDS011;51588;53.702;10.208;2024-03-02T09:32:13;27.00;;;7.83;;
64894;SDS011;51588;53.702;10.208;2024-03-02T09:34:40;18.57;;;7.80;;
64894;SDS011;51588;53.702;10.208;2024-03-02T09:37:08;16.23;;;7.90;;
64894;SDS011;51588;53.702;10.208;2024-03-02T09:39:35;14.40;;;7.20;;
64894;SDS011;51588;53.702;10.208;2024-03-02T09:42:01;14.07;;;7.43;;
64894;SDS011;51588;53.702;10.208;2024-03-02T09:44:30;11.10;;;7.10;;
64894;SDS011;51588;53.702;10.208;2024-03-02T09:46:57;16.10;;;7.60;;
64894;SDS011;51588;53.702;10.208;2024-03-02T09:49:25;13.40;;;7.60;;
64894;SDS011;51588;53.702;10.208;2024-03-02T09:51:52;13.20;;;7.67;;
64894;SDS011;51588;53.702;10.208;2024-03-02T09:54:22;12.67;;;7.03;;
64894;SDS011;51588;53.702;10.208;2024-03-02T09:56:51;12.87;;;7.20;;
64894;SDS011;51588;53.702;10.208;2024-03-02T09:59:20;12.23;;;7.93;;
64894;SDS011;51588;53.702;10.208;2024-03-02T10:01:57;17.10;;;8.30;;
64894;SDS011;51588;53.702;10.208;2024-03-02T10:04:26;14.80;;;7.47;;
64894;SDS011;51588;53.702;10.208;2024-03-02T10:07:08;15.73;;;7.90;;
64894;SDS011;51588;53.702;10.208;2024-03-02T10:09:36;18.20;;;7.50;;
64894;SDS011;51588;53.702;10.208;2024-03-02T10:12:03;11.27;;;6.63;;
64894;SDS011;51588;53.702;10.208;2024-03-02T10:14:31;12.27;;;7.60;;
64894;SDS011;51588;53.702;10.208;2024-03-02T10:17:01;12.07;;;6.43;;
64894;SDS011;51588;53.702;10.208;2024-03-02T10:19:30;10.63;;;7.03;;
64894;SDS011;51588;53.702;10.208;2024-03-02T10:21:58;11.67;;;6.30;;
64894;SDS011;51588;53.702;10.208;2024-03-02T10:24:26;12.93;;;6.90;;
64894;SDS011;51588;53.702;10.208;2024-03-02T10:26:55;11.43;;;6.97;;
64894;SDS011;51588;53.702;10.208;2024-03-02T10:29:24;11.93;;;6.20;;
64894;SDS011;51588;53.702;10.208;2024-03-02T10:31:53;15.00;;;7.20;;
64894;SDS011;51588;53.702;10.208;2024-03-02T10:34:21;15.83;;;7.67;;
64894;SDS011;51588;53.702;10.208;2024-03-02T10:36:49;12.60;;;7.40;;
64894;SDS011;51588;53.702;10.208;2024-03-02T10:39:19;9.80;;;6.80;;
64894;SDS011;51588;53.702;10.208;2024-03-02T10:41:46;7.73;;;6.10;;
64894;SDS011;51588;53.702;10.208;2024-03-02T10:44:18;11.00;;;6.67;;
64894;SDS011;51588;53.702;10.208;2024-03-02T10:46:45;8.90;;;6.10;;
64894;SDS011;51588;53.702;10.208;2024-03-02T10:49:13;10.97;;;6.40;;
64894;SDS011;51588;53.702;10.208;2024-03-02T10:51:40;8.57;;;6.10;;
64894;SDS011;51588;53.702;10.208;2024-03-02T10:54:11;9.70;;;6.30;;
64894;SDS011;51588;53.702;10.208;2024-03-02T10:56:38;10.40;;;6.70;;
64894;SDS011;51588;53.702;10.208;2024-03-02T10:59:06;8.60;;;5.80;;
64894;SDS011;51588;53.702;10.208;2024-03-02T11:01:43;12.97;;;5.60;;
64894;SDS011;51588;53.702;10.208;2024-03-02T11:04:13;11.00;;;6.83;;
64894;SDS011;51588;53.702;10.208;2024-03-02T11:06:42;10.50;;;5.80;;
64894;SDS011;51588;53.702;10.208;2024-03-02T11:09:16;8.13;;;5.73;;
64894;SDS011;51588;53.702;10.208;2024-03-02T11:11:51;8.70;;;5.63;;
64894;SDS011;51588;53.702;10.208;2024-03-02T11:14:24;7.37;;;5.50;;
64894;SDS011;51588;53.702;10.208;2024-03-02T11:16:51;8.80;;;5.60;;
64894;SDS011;51588;53.702;10.208;2024-03-02T11:19:19;7.43;;;4.90;;
64894;SDS011;51588;53.702;10.208;2024-03-02T11:21:46;6.80;;;4.77;;
64894;SDS011;51588;53.702;10.208;2024-03-02T11:24:29;7.77;;;5.40;;
64894;SDS011;51588;53.702;10.208;2024-03-02T11:27:00;8.83;;;5.07;;
64894;SDS011;51588;53.702;10.208;2024-03-02T11:29:43;8.23;;;5.53;;
64894;SDS011;51588;53.702;10.208;2024-03-02T11:32:14;7.63;;;5.37;;
64894;SDS011;51588;53.702;10.208;2024-03-02T11:34:42;7.30;;;5.20;;
64894;SDS011;51588;53.702;10.208;2024-03-02T11:37:11;7.77;;;5.60;;
64894;SDS011;51588;53.702;10.208;2024-03-02T11:39:40;9.50;;;6.43;;
64894;SDS011;51588;53.702;10.208;2024-03-02T11:42:07;10.27;;;5.40;;
64894;SDS011;51588;53.702;10.208;2024-03-02T11:44:35;7.70;;;5.60;;
64894;SDS011;51588;53.702;10.208;2024-03-02T11:47:05;7.63;;;5.60;;
64894;SDS011;51588;53.702;10.208;2024-03-02T11:49:37;9.60;;;5.73;;
64894;SDS011;51588;53.702;10.208;2024-03-02T11:52:05;9.07;;;5.60;;
64894;SDS011;51588;53.702;10.208;2024-03-02T11:54:33;7.63;;;5.60;;
64894;SDS011;51588;53.702;10.208;2024-03-02T11:57:02;7.60;;;5.50;;
64894;SDS011;51588;53.702;10.208;2024-03-02T11:59:29;6.50;;;5.20;;
64894;SDS011;51588;53.702;10.208;2024-03-02T12:01:56;10.53;;;5.80;;
64894;SDS011;51588;53.702;10.208;2024-03-02T12:04:24;7.00;;;5.43;;
64894;SDS011;51588;53.702;10.208;2024-03-02T12:06:54;7.03;;;5.57;;
64894;SDS011;51588;53.702;10.208;2024-03-02T12:09:21;9.10;;;5.97;;
64894;SDS011;51588;53.702;10.208;2024-03-02T12:12:00;6.97;;;5.60;;
64894;SDS011;51588;53.702;10.208;2024-03-02T12:14:30;5.90;;;5.20;;
64894;SDS011;51588;53.702;10.208;2024-03-02T12:16:57;7.53;;;5.60;;
64894;SDS011;51588;53.702;10.208;2024-03-02T12:19:24;7.10;;;5.53;;
64894;SDS011;51588;53.702;10.208;2024-03-02T12:21:50;7.27;;;5.53;;
64894;SDS011;51588;53.702;10.208;2024-03-02T12:24:17;7.27;;;5.53;;
64894;SDS011;51588;53.702;10.208;2024-03-02T12:26:50;6.30;;;5.40;;
64894;SDS011;51588;53.702;10.208;2024-03-02T12:29:19;9.67;;;5.90;;
64894;SDS011;51588;53.702;10.208;2024-03-02T12:31:47;7.37;;;6.00;;
64894;SDS011;51588;53.702;10.208;2024-03-02T12:34:15;8.57;;;5.63;;
64894;SDS011;51588;53.702;10.208;2024-03-02T12:36:43;8.53;;;5.47;;
64894;SDS011;51588;53.702;10.208;2024-03-02T12:39:14;8.70;;;6.03;;
64894;SDS011;51588;53.702;10.208;2024-03-02T12:41:41;6.83;;;5.43;;
64894;SDS011;51588;53.702;10.208;2024-03-02T12:44:08;10.80;;;5.80;;
64894;SDS011;51588;53.702;10.208;2024-03-02T12:46:36;8.80;;;5.63;;
64894;SDS011;51588;53.702;10.208;2024-03-02T12:49:07;8.73;;;6.40;;
64894;SDS011;51588;53.702;10.208;2024-03-02T12:51:36;13.20;;;6.53;;
64894;SDS011;51588;53.702;10.208;2024-03-02T12:54:03;11.57;;;6.60;;
64894;SDS011;51588;53.702;10.208;2024-03-02T12:56:33;11.23;;;7.07;;
64894;SDS011;51588;53.702;10.208;2024-03-02T12:59:01;13.47;;;6.93;;
64894;SDS011;51588;53.702;10.208;2024-03-02T13:01:28;10.17;;;6.10;;
64894;SDS011;51588;53.702;10.208;2024-03-02T13:03:56;9.37;;;6.73;;
64894;SDS011;51588;53.702;10.208;2024-03-02T13:06:25;13.70;;;6.33;;
64894;SDS011;51588;53.702;10.208;2024-03-02T13:08:53;9.30;;;6.47;;
64894;SDS011;51588;53.702;10.208;2024-03-02T13:11:21;8.00;;;5.70;;
64894;SDS011;51588;53.702;10.208;2024-03-02T13:13:48;9.03;;;5.93;;
64894;SDS011;51588;53.702;10.208;2024-03-02T13:16:15;16.23;;;7.23;;
64894;SDS011;51588;53.702;10.208;2024-03-02T13:18:44;10.07;;;5.70;;
64894;SDS011;51588;53.702;10.208;2024-03-02T13:21:12;11.33;;;5.70;;
64894;SDS011;51588;53.702;10.208;2024-03-02T13:23:39;11.87;;;5.67;;
64894;SDS011;51588;53.702;10.208;2024-03-02T13:26:06;8.83;;;5.33;;
64894;SDS011;51588;53.702;10.208;2024-03-02T13:28:41;9.00;;;5.10;;
64894;SDS011;51588;53.702;10.208;2024-03-02T13:31:08;8.20;;;5.40;;
64894;SDS011;51588;53.702;10.208;2024-03-02T13:33:34;13.50;;;6.33;;
64894;SDS011;51588;53.702;10.208;2024-03-02T13:36:01;11.30;;;6.03;;
64894;SDS011;51588;53.702;10.208;2024-03-02T13:38:30;14.50;;;5.73;;
64894;SDS011;51588;53.702;10.208;2024-03-02T13:40:56;10.37;;;5.30;;
64894;SDS011;51588;53.702;10.208;2024-03-02T13:43:25;10.17;;;5.80;;
64894;SDS011;51588;53.702;10.208;2024-03-02T13:45:52;10.67;;;5.57;;
64894;SDS011;51588;53.702;10.208;2024-03-02T13:48:18;16.10;;;6.40;;
64894;SDS011;51588;53.702;10.208;2024-03-02T13:50:45;10.10;;;5.23;;
64894;SDS011;51588;53.702;10.208;2024-03-02T13:53:14;10.17;;;5.20;;
64894;SDS011;51588;53.702;10.208;2024-03-02T13:55:42;10.47;;;4.90;;
64894;SDS011;51588;53.702;10.208;2024-03-02T13:58:09;9.07;;;5.43;;
64894;SDS011;51588;53.702;10.208;2024-03-02T14:00:36;10.30;;;5.03;;
64894;SDS011;51588;53.702;10.208;2024-03-02T14:03:03;8.13;;;5.67;;
64894;SDS011;51588;53.702;10.208;2024-03-02T14:05:32;10.83;;;5.07;;
64894;SDS011;51588;53.702;10.208;2024-03-02T14:08:02;9.87;;;5.77;;
64894;SDS011;51588;53.702;10.208;2024-03-02T14:10:29;9.13;;;5.13;;
64894;SDS011;51588;53.702;10.208;2024-03-02T14:12:57;7.73;;;4.73;;
64894;SDS011;51588;53.702;10.208;2024-03-02T14:15:23;7.00;;;5.30;;
64894;SDS011;51588;53.702;10.208;2024-03-02T14:17:50;5.87;;;4.47;;
64894;SDS011;51588;53.702;10.208;2024-03-02T14:20:17;9.67;;;4.73;;
64894;SDS011;51588;53.702;10.208;2024-03-02T14:22:47;7.70;;;4.73;;
64894;SDS011;51588;53.702;10.208;2024-03-02T14:25:14;6.37;;;4.40;;
64894;SDS011;51588;53.702;10.208;2024-03-02T14:27:47;5.27;;;4.47;;
64894;SDS011;51588;53.702;10.208;2024-03-02T14:30:15;7.33;;;4.83;;
64894;SDS011;51588;53.702;10.208;2024-03-02T14:32:42;8.87;;;4.87;;
64894;SDS011;51588;53.702;10.208;2024-03-02T14:35:12;7.53;;;4.57;;